sensor_id;sensor_type;location;lat;lon;timestamp;P1;durP1;ratioP1;P2;durP2;ratioP2
51292;SDS011;37377;45.186;9.778;2023-10-13T07:28:06;44.22;;;32.40;;
51292;SDS011;37377;45.186;9.778;2023-10-13T07:30:38;59.40;;;35.13;;
51292;SDS011;37377;45.186;9.778;2023-10-13T07:33:56;55.47;;;35.10;;
51292;SDS011;37377;45.186;9.778;2023-10-13T07:36:33;55.33;;;34.50;;
51292;SDS011;37377;45.186;9.778;2023-10-13T07:39:06;50.58;;;34.45;;
51292;SDS011;37377;45.186;9.778;2023-10-13T07:41:49;58.33;;;33.65;;
51292;SDS011;37377;45.186;9.778;2023-10-13T07:44:21;63.22;;;34.45;;
51292;SDS011;37377;45.186;9.778;2023-10-13T07:46:52;57.00;;;34.90;;
51292;SDS011;37377;45.186;9.778;2023-10-13T07:49:35;67.97;;;36.15;;
51292;SDS011;37377;45.186;9.778;2023-10-13T07:52:08;47.58;;;33.92;;
51292;SDS011;37377;45.186;9.778;2023-10-13T07:54:47;61.08;;;35.20;;
51292;SDS011;37377;45.186;9.778;2023-10-13T07:57:40;51.15;;;34.17;;
51292;SDS011;37377;45.186;9.778;2023-10-13T08:00:29;52.55;;;33.95;;
51292;SDS011;37377;45.186;9.778;2023-10-13T08:03:14;44.78;;;33.95;;
51292;SDS011;37377;45.186;9.778;2023-10-13T08:05:41;55.85;;;33.28;;
51292;SDS011;37377;45.186;9.778;2023-10-13T08:08:27;42.10;;;32.25;;
51292;SDS011;37377;45.186;9.778;2023-10-13T08:11:08;49.55;;;31.98;;
51292;SDS011;37377;45.186;9.778;2023-10-13T08:13:55;44.45;;;31.10;;
51292;SDS011;37377;45.186;9.778;2023-10-13T08:16:28;47.30;;;32.25;;
51292;SDS011;37377;45.186;9.778;2023-10-13T08:19:27;41.53;;;29.38;;
51292;SDS011;37377;45.186;9.778;2023-10-13T08:21:55;43.72;;;27.85;;
51292;SDS011;37377;45.186;9.778;2023-10-13T08:24:41;38.92;;;27.73;;
51292;SDS011;37377;45.186;9.778;2023-10-13T08:27:08;47.78;;;27.85;;
51292;SDS011;37377;45.186;9.778;2023-10-13T08:29:41;32.33;;;25.35;;
51292;SDS011;37377;45.186;9.778;2023-10-13T08:32:25;28.98;;;22.58;;
51292;SDS011;37377;45.186;9.778;2023-10-13T08:34:53;31.63;;;20.25;;
51292;SDS011;37377;45.186;9.778;2023-10-13T08:37:21;27.20;;;19.38;;
51292;SDS011;37377;45.186;9.778;2023-10-13T08:39:49;28.38;;;18.08;;
51292;SDS011;37377;45.186;9.778;2023-10-13T08:42:48;32.85;;;18.85;;
51292;SDS011;37377;45.186;9.778;2023-10-13T08:45:41;33.03;;;19.30;;
51292;SDS011;37377;45.186;9.778;2023-10-13T08:48:11;30.70;;;19.35;;
51292;SDS011;37377;45.186;9.778;2023-10-13T08:50:42;36.40;;;19.95;;
51292;SDS011;37377;45.186;9.778;2023-10-13T08:55:59;46.67;;;21.58;;
51292;SDS011;37377;45.186;9.778;2023-10-13T08:58:36;40.50;;;22.98;;
51292;SDS011;37377;45.186;9.778;2023-10-13T09:01:31;40.05;;;22.67;;
51292;SDS011;37377;45.186;9.778;2023-10-13T09:04:05;46.90;;;23.65;;
51292;SDS011;37377;45.186;9.778;2023-10-13T09:06:49;42.20;;;22.05;;
51292;SDS011;37377;45.186;9.778;2023-10-13T09:09:27;43.08;;;23.02;;
51292;SDS011;37377;45.186;9.778;2023-10-13T09:12:10;37.28;;;22.80;;
51292;SDS011;37377;45.186;9.778;2023-10-13T09:14:41;39.03;;;22.80;;
51292;SDS011;37377;45.186;9.778;2023-10-13T09:17:12;36.10;;;22.58;;
51292;SDS011;37377;45.186;9.778;2023-10-13T09:19:46;33.42;;;22.88;;
51292;SDS011;37377;45.186;9.778;2023-10-13T09:22:27;31.20;;;22.00;;
51292;SDS011;37377;45.186;9.778;2023-10-13T09:25:04;39.45;;;23.27;;
51292;SDS011;37377;45.186;9.778;2023-10-13T09:27:32;39.13;;;23.63;;
51292;SDS011;37377;45.186;9.778;2023-10-13T09:30:00;33.85;;;23.67;;
51292;SDS011;37377;45.186;9.778;2023-10-13T09:32:36;38.50;;;23.23;;
51292;SDS011;37377;45.186;9.778;2023-10-13T09:35:19;34.15;;;21.42;;
51292;SDS011;37377;45.186;9.778;2023-10-13T09:37:50;32.28;;;18.63;;
51292;SDS011;37377;45.186;9.778;2023-10-13T09:40:18;32.35;;;19.20;;
51292;SDS011;37377;45.186;9.778;2023-10-13T09:43:01;42.22;;;18.25;;
51292;SDS011;37377;45.186;9.778;2023-10-13T09:45:34;27.60;;;17.80;;
51292;SDS011;37377;45.186;9.778;2023-10-13T09:48:10;30.27;;;17.58;;
51292;SDS011;37377;45.186;9.778;2023-10-13T09:50:43;32.25;;;17.70;;
51292;SDS011;37377;45.186;9.778;2023-10-13T09:53:12;35.05;;;16.58;;
51292;SDS011;37377;45.186;9.778;2023-10-13T09:55:45;35.55;;;16.38;;
51292;SDS011;37377;45.186;9.778;2023-10-13T09:58:15;34.70;;;15.82;;
51292;SDS011;37377;45.186;9.778;2023-10-13T10:00:56;30.90;;;15.25;;
51292;SDS011;37377;45.186;9.778;2023-10-13T10:03:46;27.30;;;13.73;;
51292;SDS011;37377;45.186;9.778;2023-10-13T10:06:22;28.50;;;13.30;;
51292;SDS011;37377;45.186;9.778;2023-10-13T10:09:04;30.75;;;13.52;;
51292;SDS011;37377;45.186;9.778;2023-10-13T10:11:54;24.73;;;12.05;;
51292;SDS011;37377;45.186;9.778;2023-10-13T10:17:29;23.90;;;12.48;;
51292;SDS011;37377;45.186;9.778;2023-10-13T10:19:59;27.02;;;12.73;;
51292;SDS011;37377;45.186;9.778;2023-10-13T10:22:32;29.50;;;13.23;;
51292;SDS011;37377;45.186;9.778;2023-10-13T10:25:01;29.23;;;13.18;;
51292;SDS011;37377;45.186;9.778;2023-10-13T10:27:54;34.15;;;15.57;;
51292;SDS011;37377;45.186;9.778;2023-10-13T10:30:26;47.20;;;15.77;;
51292;SDS011;37377;45.186;9.778;2023-10-13T10:32:55;33.67;;;15.65;;
51292;SDS011;37377;45.186;9.778;2023-10-13T10:35:33;22.90;;;13.38;;
51292;SDS011;37377;45.186;9.778;2023-10-13T10:38:19;33.08;;;13.82;;
51292;SDS011;37377;45.186;9.778;2023-10-13T10:41:02;23.63;;;13.45;;
51292;SDS011;37377;45.186;9.778;2023-10-13T10:46:18;28.63;;;13.88;;
51292;SDS011;37377;45.186;9.778;2023-10-13T10:48:52;30.23;;;13.90;;
51292;SDS011;37377;45.186;9.778;2023-10-13T10:51:28;23.65;;;12.27;;
51292;SDS011;37377;45.186;9.778;2023-10-13T10:53:58;18.90;;;12.52;;
51292;SDS011;37377;45.186;9.778;2023-10-13T10:56:38;34.13;;;14.45;;
51292;SDS011;37377;45.186;9.778;2023-10-13T10:59:05;37.45;;;13.20;;
51292;SDS011;37377;45.186;9.778;2023-10-13T11:01:45;21.27;;;14.23;;
51292;SDS011;37377;45.186;9.778;2023-10-13T11:04:19;29.13;;;13.85;;
51292;SDS011;37377;45.186;9.778;2023-10-13T11:06:53;26.10;;;13.68;;
51292;SDS011;37377;45.186;9.778;2023-10-13T11:09:31;29.05;;;14.07;;
51292;SDS011;37377;45.186;9.778;2023-10-13T11:14:30;29.33;;;15.50;;
51292;SDS011;37377;45.186;9.778;2023-10-13T11:16:58;29.20;;;16.50;;
51292;SDS011;37377;45.186;9.778;2023-10-13T11:20:11;28.52;;;16.73;;
51292;SDS011;37377;45.186;9.778;2023-10-13T11:23:16;23.77;;;16.70;;
51292;SDS011;37377;45.186;9.778;2023-10-13T11:26:03;36.90;;;18.23;;
51292;SDS011;37377;45.186;9.778;2023-10-13T11:28:50;31.75;;;17.25;;
51292;SDS011;37377;45.186;9.778;2023-10-13T11:31:32;28.77;;;18.07;;
51292;SDS011;37377;45.186;9.778;2023-10-13T11:34:16;29.45;;;16.73;;
51292;SDS011;37377;45.186;9.778;2023-10-13T11:36:52;31.02;;;16.52;;
51292;SDS011;37377;45.186;9.778;2023-10-13T11:39:21;33.45;;;17.10;;
51292;SDS011;37377;45.186;9.778;2023-10-13T11:41:59;42.45;;;15.95;;
51292;SDS011;37377;45.186;9.778;2023-10-13T11:44:27;31.38;;;16.33;;
51292;SDS011;37377;45.186;9.778;2023-10-13T11:46:58;38.63;;;18.35;;
51292;SDS011;37377;45.186;9.778;2023-10-13T11:49:44;47.63;;;18.92;;
51292;SDS011;37377;45.186;9.778;2023-10-13T11:52:11;28.60;;;17.63;;
51292;SDS011;37377;45.186;9.778;2023-10-13T11:54:44;30.33;;;17.50;;
51292;SDS011;37377;45.186;9.778;2023-10-13T11:57:11;31.08;;;18.52;;
51292;SDS011;37377;45.186;9.778;2023-10-13T11:59:38;30.08;;;16.88;;
51292;SDS011;37377;45.186;9.778;2023-10-13T12:02:11;28.80;;;17.73;;
51292;SDS011;37377;45.186;9.778;2023-10-13T12:04:38;30.42;;;16.38;;
51292;SDS011;37377;45.186;9.778;2023-10-13T12:07:25;32.15;;;17.02;;
51292;SDS011;37377;45.186;9.778;2023-10-13T12:10:11;34.63;;;16.25;;
51292;SDS011;37377;45.186;9.778;2023-10-13T12:12:56;30.55;;;15.10;;
51292;SDS011;37377;45.186;9.778;2023-10-13T12:15:26;33.13;;;15.55;;
51292;SDS011;37377;45.186;9.778;2023-10-13T12:18:01;27.45;;;15.15;;
51292;SDS011;37377;45.186;9.778;2023-10-13T12:20:30;28.13;;;13.65;;
51292;SDS011;37377;45.186;9.778;2023-10-13T12:23:09;22.65;;;12.18;;
51292;SDS011;37377;45.186;9.778;2023-10-13T12:25:42;21.67;;;9.40;;
51292;SDS011;37377;45.186;9.778;2023-10-13T12:28:22;21.55;;;9.98;;
51292;SDS011;37377;45.186;9.778;2023-10-13T12:30:50;19.40;;;10.63;;
51292;SDS011;37377;45.186;9.778;2023-10-13T12:33:20;20.08;;;11.68;;
51292;SDS011;37377;45.186;9.778;2023-10-13T12:36:13;18.83;;;9.77;;
51292;SDS011;37377;45.186;9.778;2023-10-13T12:38:40;12.18;;;7.50;;
51292;SDS011;37377;45.186;9.778;2023-10-13T12:41:17;15.02;;;7.55;;
51292;SDS011;37377;45.186;9.778;2023-10-13T12:44:03;12.95;;;6.18;;
51292;SDS011;37377;45.186;9.778;2023-10-13T12:46:50;17.58;;;8.43;;
51292;SDS011;37377;45.186;9.778;2023-10-13T12:49:37;18.90;;;8.52;;
51292;SDS011;37377;45.186;9.778;2023-10-13T12:52:11;15.88;;;8.38;;
51292;SDS011;37377;45.186;9.778;2023-10-13T12:54:55;19.60;;;10.32;;
51292;SDS011;37377;45.186;9.778;2023-10-13T12:57:25;31.25;;;17.92;;
51292;SDS011;37377;45.186;9.778;2023-10-13T12:59:53;31.40;;;15.68;;
51292;SDS011;37377;45.186;9.778;2023-10-13T13:02:21;28.00;;;15.77;;
51292;SDS011;37377;45.186;9.778;2023-10-13T13:04:48;22.83;;;14.57;;
51292;SDS011;37377;45.186;9.778;2023-10-13T13:07:21;21.58;;;13.88;;
51292;SDS011;37377;45.186;9.778;2023-10-13T13:09:48;27.40;;;15.07;;
51292;SDS011;37377;45.186;9.778;2023-10-13T13:12:15;25.60;;;14.68;;
51292;SDS011;37377;45.186;9.778;2023-10-13T13:14:46;26.02;;;15.93;;
51292;SDS011;37377;45.186;9.778;2023-10-13T13:17:13;25.50;;;14.98;;
51292;SDS011;37377;45.186;9.778;2023-10-13T13:19:40;23.58;;;15.85;;
51292;SDS011;37377;45.186;9.778;2023-10-13T13:22:08;25.40;;;15.27;;
51292;SDS011;37377;45.186;9.778;2023-10-13T13:24:39;24.20;;;16.35;;
51292;SDS011;37377;45.186;9.778;2023-10-13T13:27:16;26.13;;;15.48;;
51292;SDS011;37377;45.186;9.778;2023-10-13T13:29:49;29.88;;;15.07;;
51292;SDS011;37377;45.186;9.778;2023-10-13T13:32:16;22.67;;;15.27;;
51292;SDS011;37377;45.186;9.778;2023-10-13T13:34:51;24.42;;;14.45;;
51292;SDS011;37377;45.186;9.778;2023-10-13T13:37:26;32.75;;;14.70;;
51292;SDS011;37377;45.186;9.778;2023-10-13T13:39:54;25.52;;;14.90;;
51292;SDS011;37377;45.186;9.778;2023-10-13T13:42:22;22.48;;;15.13;;
51292;SDS011;37377;45.186;9.778;2023-10-13T13:44:50;29.27;;;15.27;;
51292;SDS011;37377;45.186;9.778;2023-10-13T13:47:20;27.02;;;14.10;;
51292;SDS011;37377;45.186;9.778;2023-10-13T13:49:51;27.83;;;13.50;;
51292;SDS011;37377;45.186;9.778;2023-10-13T13:52:21;20.98;;;13.38;;
51292;SDS011;37377;45.186;9.778;2023-10-13T13:55:00;33.72;;;15.27;;
51292;SDS011;37377;45.186;9.778;2023-10-13T13:57:30;25.52;;;15.20;;
51292;SDS011;37377;45.186;9.778;2023-10-13T13:59:58;24.10;;;14.50;;
51292;SDS011;37377;45.186;9.778;2023-10-13T14:02:25;23.27;;;16.13;;
51292;SDS011;37377;45.186;9.778;2023-10-13T14:04:55;30.80;;;15.98;;
51292;SDS011;37377;45.186;9.778;2023-10-13T14:07:23;21.00;;;15.07;;
51292;SDS011;37377;45.186;9.778;2023-10-13T14:09:51;32.67;;;15.25;;
51292;SDS011;37377;45.186;9.778;2023-10-13T14:12:18;25.30;;;14.75;;
51292;SDS011;37377;45.186;9.778;2023-10-13T14:15:04;22.00;;;13.93;;
51292;SDS011;37377;45.186;9.778;2023-10-13T14:17:46;28.67;;;15.20;;
51292;SDS011;37377;45.186;9.778;2023-10-13T14:20:16;31.02;;;14.23;;
51292;SDS011;37377;45.186;9.778;2023-10-13T14:22:46;36.83;;;13.55;;
51292;SDS011;37377;45.186;9.778;2023-10-13T14:25:16;30.60;;;13.13;;
51292;SDS011;37377;45.186;9.778;2023-10-13T14:27:47;28.73;;;14.25;;
51292;SDS011;37377;45.186;9.778;2023-10-13T14:30:14;35.95;;;14.65;;
51292;SDS011;37377;45.186;9.778;2023-10-13T14:32:46;28.23;;;17.38;;
51292;SDS011;37377;45.186;9.778;2023-10-13T14:35:13;26.00;;;14.98;;
51292;SDS011;37377;45.186;9.778;2023-10-13T14:37:43;36.00;;;16.08;;
51292;SDS011;37377;45.186;9.778;2023-10-13T14:40:10;24.77;;;15.25;;
51292;SDS011;37377;45.186;9.778;2023-10-13T14:42:43;22.33;;;14.60;;
51292;SDS011;37377;45.186;9.778;2023-10-13T14:45:10;36.83;;;15.73;;
51292;SDS011;37377;45.186;9.778;2023-10-13T14:47:40;20.48;;;14.00;;
51292;SDS011;37377;45.186;9.778;2023-10-13T14:50:08;32.78;;;15.07;;
51292;SDS011;37377;45.186;9.778;2023-10-13T14:52:43;30.13;;;15.60;;
51292;SDS011;37377;45.186;9.778;2023-10-13T14:55:10;30.10;;;15.98;;
51292;SDS011;37377;45.186;9.778;2023-10-13T14:57:48;35.10;;;15.38;;
51292;SDS011;37377;45.186;9.778;2023-10-13T15:00:18;23.00;;;15.45;;
51292;SDS011;37377;45.186;9.778;2023-10-13T15:02:52;29.98;;;16.98;;
51292;SDS011;37377;45.186;9.778;2023-10-13T15:05:21;26.17;;;15.55;;
51292;SDS011;37377;45.186;9.778;2023-10-13T15:07:47;37.90;;;16.63;;
51292;SDS011;37377;45.186;9.778;2023-10-13T15:10:14;34.17;;;15.65;;
51292;SDS011;37377;45.186;9.778;2023-10-13T15:12:42;29.45;;;15.63;;
51292;SDS011;37377;45.186;9.778;2023-10-13T15:15:11;36.30;;;14.10;;
51292;SDS011;37377;45.186;9.778;2023-10-13T15:17:46;26.67;;;14.52;;
51292;SDS011;37377;45.186;9.778;2023-10-13T15:20:14;27.05;;;14.23;;
51292;SDS011;37377;45.186;9.778;2023-10-13T15:22:44;31.17;;;14.68;;
51292;SDS011;37377;45.186;9.778;2023-10-13T15:25:14;33.67;;;15.68;;
51292;SDS011;37377;45.186;9.778;2023-10-13T15:27:48;42.30;;;15.48;;
51292;SDS011;37377;45.186;9.778;2023-10-13T15:30:22;30.33;;;14.55;;
51292;SDS011;37377;45.186;9.778;2023-10-13T15:32:57;34.90;;;15.40;;
51292;SDS011;37377;45.186;9.778;2023-10-13T15:35:24;33.70;;;14.40;;
51292;SDS011;37377;45.186;9.778;2023-10-13T15:37:55;26.13;;;13.65;;
51292;SDS011;37377;45.186;9.778;2023-10-13T15:40:23;30.73;;;13.80;;
51292;SDS011;37377;45.186;9.778;2023-10-13T15:42:50;25.20;;;13.35;;
51292;SDS011;37377;45.186;9.778;2023-10-13T15:45:17;33.03;;;14.70;;
51292;SDS011;37377;45.186;9.778;2023-10-13T15:47:45;34.30;;;15.52;;
51292;SDS011;37377;45.186;9.778;2023-10-13T15:50:35;30.40;;;15.73;;
51292;SDS011;37377;45.186;9.778;2023-10-13T15:53:06;35.13;;;16.30;;
51292;SDS011;37377;45.186;9.778;2023-10-13T15:55:37;40.28;;;17.30;;
51292;SDS011;37377;45.186;9.778;2023-10-13T15:58:04;32.65;;;17.63;;
51292;SDS011;37377;45.186;9.778;2023-10-13T16:00:35;31.25;;;17.10;;
51292;SDS011;37377;45.186;9.778;2023-10-13T16:03:03;39.25;;;16.48;;
51292;SDS011;37377;45.186;9.778;2023-10-13T16:05:37;36.67;;;17.27;;
51292;SDS011;37377;45.186;9.778;2023-10-13T16:08:06;45.22;;;16.85;;
51292;SDS011;37377;45.186;9.778;2023-10-13T16:10:40;45.08;;;15.43;;
51292;SDS011;37377;45.186;9.778;2023-10-13T16:13:08;42.70;;;15.90;;
51292;SDS011;37377;45.186;9.778;2023-10-13T16:15:43;54.95;;;15.63;;
51292;SDS011;37377;45.186;9.778;2023-10-13T16:18:13;33.90;;;17.67;;
51292;SDS011;37377;45.186;9.778;2023-10-13T16:20:41;41.20;;;18.15;;
51292;SDS011;37377;45.186;9.778;2023-10-13T16:23:10;46.72;;;18.58;;
51292;SDS011;37377;45.186;9.778;2023-10-13T16:25:37;45.35;;;17.80;;
51292;SDS011;37377;45.186;9.778;2023-10-13T16:28:04;38.63;;;17.00;;
51292;SDS011;37377;45.186;9.778;2023-10-13T16:30:32;51.33;;;18.63;;
51292;SDS011;37377;45.186;9.778;2023-10-13T16:32:58;37.47;;;16.95;;
51292;SDS011;37377;45.186;9.778;2023-10-13T16:35:25;42.38;;;18.85;;
51292;SDS011;37377;45.186;9.778;2023-10-13T16:37:52;68.07;;;19.70;;
51292;SDS011;37377;45.186;9.778;2023-10-13T16:40:19;50.88;;;18.67;;
51292;SDS011;37377;45.186;9.778;2023-10-13T16:42:47;48.53;;;17.75;;
51292;SDS011;37377;45.186;9.778;2023-10-13T16:45:15;57.50;;;20.15;;
51292;SDS011;37377;45.186;9.778;2023-10-13T16:47:47;42.10;;;17.08;;
51292;SDS011;37377;45.186;9.778;2023-10-13T16:50:15;50.33;;;18.55;;
51292;SDS011;37377;45.186;9.778;2023-10-13T16:52:47;45.15;;;19.40;;
51292;SDS011;37377;45.186;9.778;2023-10-13T16:55:23;39.35;;;18.48;;
51292;SDS011;37377;45.186;9.778;2023-10-13T16:57:51;52.30;;;19.38;;
51292;SDS011;37377;45.186;9.778;2023-10-13T17:00:19;61.55;;;19.50;;
51292;SDS011;37377;45.186;9.778;2023-10-13T17:02:56;52.88;;;20.23;;
51292;SDS011;37377;45.186;9.778;2023-10-13T17:05:24;52.05;;;20.23;;
51292;SDS011;37377;45.186;9.778;2023-10-13T17:07:57;47.85;;;19.52;;
51292;SDS011;37377;45.186;9.778;2023-10-13T17:10:27;52.28;;;20.73;;
51292;SDS011;37377;45.186;9.778;2023-10-13T17:12:56;55.63;;;20.95;;
51292;SDS011;37377;45.186;9.778;2023-10-13T17:15:23;59.05;;;21.02;;
51292;SDS011;37377;45.186;9.778;2023-10-13T17:17:51;64.20;;;22.20;;
51292;SDS011;37377;45.186;9.778;2023-10-13T17:20:18;59.17;;;22.30;;
51292;SDS011;37377;45.186;9.778;2023-10-13T17:22:47;71.03;;;22.80;;
51292;SDS011;37377;45.186;9.778;2023-10-13T17:25:16;59.85;;;22.58;;
51292;SDS011;37377;45.186;9.778;2023-10-13T17:27:44;75.47;;;23.48;;
51292;SDS011;37377;45.186;9.778;2023-10-13T17:30:12;63.80;;;24.15;;
51292;SDS011;37377;45.186;9.778;2023-10-13T17:32:39;59.95;;;24.30;;
51292;SDS011;37377;45.186;9.778;2023-10-13T17:35:07;68.53;;;24.67;;
51292;SDS011;37377;45.186;9.778;2023-10-13T17:37:34;57.85;;;24.15;;
51292;SDS011;37377;45.186;9.778;2023-10-13T17:40:01;69.65;;;25.55;;
51292;SDS011;37377;45.186;9.778;2023-10-13T17:42:30;66.25;;;24.10;;
51292;SDS011;37377;45.186;9.778;2023-10-13T17:45:02;66.05;;;25.52;;
51292;SDS011;37377;45.186;9.778;2023-10-13T17:47:31;68.05;;;24.15;;
51292;SDS011;37377;45.186;9.778;2023-10-13T17:50:02;74.95;;;24.73;;
51292;SDS011;37377;45.186;9.778;2023-10-13T17:52:30;68.22;;;24.83;;
51292;SDS011;37377;45.186;9.778;2023-10-13T17:55:30;70.93;;;25.95;;
51292;SDS011;37377;45.186;9.778;2023-10-13T17:57:57;71.20;;;26.88;;
51292;SDS011;37377;45.186;9.778;2023-10-13T18:00:26;75.82;;;27.65;;
51292;SDS011;37377;45.186;9.778;2023-10-13T18:02:53;79.57;;;27.52;;
51292;SDS011;37377;45.186;9.778;2023-10-13T18:05:21;77.05;;;26.67;;
51292;SDS011;37377;45.186;9.778;2023-10-13T18:07:49;76.95;;;27.45;;
51292;SDS011;37377;45.186;9.778;2023-10-13T18:11:06;96.05;;;28.38;;
51292;SDS011;37377;45.186;9.778;2023-10-13T23:00:41;56.15;;;37.03;;
51292;SDS011;37377;45.186;9.778;2023-10-13T23:22:01;63.17;;;37.83;;
51292;SDS011;37377;45.186;9.778;2023-10-13T23:35:38;59.35;;;37.33;;
51292;SDS011;37377;45.186;9.778;2023-10-13T23:38:51;52.67;;;37.55;;
51292;SDS011;37377;45.186;9.778;2023-10-13T23:42:07;52.50;;;38.00;;
51292;SDS011;37377;45.186;9.778;2023-10-13T23:45:00;49.17;;;35.30;;
51292;SDS011;37377;45.186;9.778;2023-10-13T23:47:50;62.53;;;36.65;;
51292;SDS011;37377;45.186;9.778;2023-10-13T23:55:43;48.88;;;33.30;;
51292;SDS011;37377;45.186;9.778;2023-10-13T23:59:42;54.15;;;33.35;;
